logo
Rechercher aéroport 
image banner adimage banner adimage banner ad
image banner ad

28VT - Mt Ascutney Hospital

Situé à Windsor, United States

ICAO - 28VT, IATA -

Données fournies par Airmate  

Information générale

Coordonnées: N43°29'13" W72°24'11"
Élévation : 532 feet MSL.
 
Voir autres Aéroports à Vermont

Données opérationnelles

Special qualification required
Heure actuelle UTC:
Heure actuelle locale:
Météo à : KLEB - Lebanon Muni ( 17 km )
METAR: KLEB 180053Z 13003KT 10SM FEW090 18/09 A3000 RMK AO2 SLP153 T01780089
TAF: KLEB 172324Z 1800/1824 VRB04KT P6SM FEW180 BKN250 FM181200 VRB03KT P6SM VCSH BKN080
Voir NOTAMs / SUP AIP / TFR affectant cet aéroport [VIEW]
Fréquences de communication: [VIEW]

Pistes:

Coordonnées de l'aéroport

Adresse: Windsor United States

Vue satellite de 28VT